Time;durP1;ratioP1;P1;durP2;ratioP2;P2;SDS_P1;SDS_P2;PMS_P1;PMS_P2;Temp;Humidity;BMP_temperature;BMP_pressure;BME280_temperature;BME280_humidity;BME280_pressure;Samples;Min_cycle;Max_cycle;Signal;HPM_P1;HPM_P2
2024/04/22 00:01:50;;;;;;;6.20;2.72;;;;;;;7.31;54.27;102840.63;5296497;26;94809;-90
2024/04/22 00:04:16;;;;;;;5.47;3.33;;;;;;;7.29;54.23;102843.94;5299548;26;94794;-90
2024/04/22 00:06:45;;;;;;;6.57;3.25;;;;;;;7.27;54.40;102837.75;5297488;26;97690;-89
2024/04/22 00:09:13;;;;;;;5.53;3.50;;;;;;;7.30;54.52;102841.44;5293094;26;98760;-89
2024/04/22 00:11:39;;;;;;;4.60;2.95;;;;;;;7.31;54.47;102844.91;5266852;26;94835;-90
2024/04/22 00:14:06;;;;;;;5.80;2.67;;;;;;;7.32;54.29;102851.91;5301526;26;94982;-89
2024/04/22 00:16:31;;;;;;;5.75;2.50;;;;;;;7.29;54.31;102849.13;5311340;26;98335;-89
2024/04/22 00:18:57;;;;;;;6.20;3.67;;;;;;;7.24;54.55;102841.97;5300446;26;97636;-89
2024/04/22 00:21:22;;;;;;;6.80;2.70;;;;;;;7.24;54.11;102846.28;5288665;26;94825;-90
2024/04/22 00:23:48;;;;;;;5.22;2.88;;;;;;;7.24;54.27;102841.09;5288782;26;94838;-90
2024/04/22 00:26:13;;;;;;;4.60;2.50;;;;;;;7.21;54.32;102839.19;5296949;26;95755;-89
2024/04/22 00:28:39;;;;;;;4.85;2.47;;;;;;;7.16;54.39;102843.22;5265872;26;98220;-89
2024/04/22 00:31:04;;;;;;;5.82;2.40;;;;;;;7.12;54.18;102840.38;5293762;26;95573;-89
2024/04/22 00:33:30;;;;;;;6.60;3.00;;;;;;;7.10;54.53;102840.28;5297664;26;95105;-89
2024/04/22 00:35:59;;;;;;;5.70;2.42;;;;;;;7.08;54.42;102848.75;5267423;26;97669;-90
2024/04/22 00:38:25;;;;;;;6.70;3.83;;;;;;;7.06;54.74;102851.28;5282352;26;98945;-89
2024/04/22 00:40:51;;;;;;;5.90;3.55;;;;;;;7.05;54.47;102844.28;5328293;26;94872;-89
2024/04/22 00:43:17;;;;;;;5.38;2.45;;;;;;;7.00;54.78;102841.41;5270081;26;95061;-89
2024/04/22 00:45:45;;;;;;;4.80;2.42;;;;;;;6.98;54.77;102843.03;5293422;26;95234;-89
2024/04/22 00:48:11;;;;;;;6.05;2.72;;;;;;;6.96;54.54;102838.56;5286640;26;96005;-89
2024/04/22 00:50:43;;;;;;;4.28;2.30;;;;;;;6.93;54.75;102839.25;5295768;26;94745;-90
2024/04/22 00:53:15;;;;;;;6.07;2.50;;;;;;;6.90;54.56;102843.38;5295103;26;94951;-89
2024/04/22 00:55:42;;;;;;;5.93;3.20;;;;;;;6.86;54.65;102842.28;5301917;26;96994;-90
2024/04/22 00:58:10;;;;;;;6.78;3.53;;;;;;;6.81;54.40;102844.63;5295769;26;98241;-90
2024/04/22 01:00:36;;;;;;;5.00;2.42;;;;;;;6.75;54.79;102841.66;5291745;26;94806;-89
2024/04/22 01:03:02;;;;;;;6.78;2.33;;;;;;;6.69;54.44;102836.09;5299719;26;94845;-90
2024/04/22 01:05:28;;;;;;;6.57;2.60;;;;;;;6.63;54.61;102836.63;5304609;26;95045;-89
2024/04/22 01:07:57;;;;;;;6.30;2.58;;;;;;;6.58;54.71;102827.69;5293571;26;98096;-89
2024/04/22 01:10:26;;;;;;;7.28;2.35;;;;;;;6.52;54.85;102824.69;5273286;26;94754;-89
2024/04/22 01:12:52;;;;;;;5.95;2.30;;;;;;;6.50;54.92;102834.09;5288773;26;94931;-90
2024/04/22 01:15:18;;;;;;;6.32;3.20;;;;;;;6.46;54.86;102824.34;5330994;26;95880;-90
2024/04/22 01:17:44;;;;;;;6.88;3.03;;;;;;;6.42;54.65;102827.56;5304438;26;98016;-89
2024/04/22 01:20:13;;;;;;;5.88;2.67;;;;;;;6.39;54.82;102820.47;5308776;26;94705;-90
2024/04/22 01:22:40;;;;;;;4.93;2.45;;;;;;;6.36;54.66;102824.56;5322490;26;94852;-90
2024/04/22 01:25:09;;;;;;;5.93;2.63;;;;;;;6.32;54.84;102818.31;5326999;26;95604;-90
2024/04/22 01:27:35;;;;;;;6.43;2.50;;;;;;;6.29;54.93;102813.84;5274657;26;98242;-90
2024/04/22 01:30:03;;;;;;;5.90;3.65;;;;;;;6.26;55.07;102815.34;5303601;26;94863;-90
2024/04/22 01:32:29;;;;;;;6.15;3.22;;;;;;;6.22;54.84;102803.91;5289708;26;94730;-90
2024/04/22 01:34:57;;;;;;;5.97;3.20;;;;;;;6.24;55.12;102809.19;5273974;26;96446;-90
2024/04/22 01:37:26;;;;;;;3.97;2.28;;;;;;;6.22;54.88;102810.75;5303171;26;97252;-89
2024/04/22 01:39:52;;;;;;;7.90;2.88;;;;;;;6.19;54.98;102805.41;5332091;26;94834;-90
2024/04/22 01:42:20;;;;;;;6.70;3.35;;;;;;;6.18;55.04;102807.06;5326462;26;94880;-89
2024/04/22 01:44:45;;;;;;;5.50;3.25;;;;;;;6.17;54.87;102794.94;5299391;26;95631;-89
2024/04/22 01:47:11;;;;;;;4.00;2.40;;;;;;;6.17;54.92;102801.78;5303455;26;97291;-90
2024/04/22 01:49:37;;;;;;;4.40;2.83;;;;;;;6.14;54.80;102799.03;5322087;26;94810;-90
2024/04/22 01:52:06;;;;;;;4.47;2.28;;;;;;;6.12;54.97;102792.88;5338320;26;94966;-90
2024/04/22 01:54:31;;;;;;;4.85;2.78;;;;;;;6.13;55.29;102792.94;5309247;26;94870;-90
2024/04/22 01:56:58;;;;;;;5.10;2.33;;;;;;;6.15;55.09;102790.44;5320159;26;98383;-89
2024/04/22 01:59:24;;;;;;;5.80;3.30;;;;;;;6.14;55.02;102786.97;5284527;26;95129;-89
2024/04/22 02:01:50;;;;;;;4.78;2.80;;;;;;;6.10;54.87;102791.06;5304001;26;94856;-89
2024/04/22 02:04:15;;;;;;;5.43;3.88;;;;;;;6.06;54.98;102791.69;5275793;26;98007;-89
2024/04/22 02:06:41;;;;;;;4.82;2.72;;;;;;;6.00;55.23;102777.44;5268621;26;98985;-89
2024/04/22 02:09:07;;;;;;;7.68;2.47;;;;;;;5.96;55.06;102780.66;5265062;26;94825;-89
2024/04/22 02:11:33;;;;;;;5.50;2.35;;;;;;;5.93;55.28;102786.50;5300484;26;94939;-89
2024/04/22 02:13:59;;;;;;;4.32;3.22;;;;;;;5.88;55.14;102777.53;5302467;26;98097;-89
2024/04/22 02:16:25;;;;;;;4.88;2.60;;;;;;;5.85;55.13;102775.66;5296329;26;96006;-89
2024/04/22 02:18:54;;;;;;;4.72;2.35;;;;;;;5.83;55.29;102771.16;5297060;26;94815;-89
2024/04/22 02:21:21;;;;;;;5.82;3.15;;;;;;;5.79;55.13;102772.66;5299427;26;94938;-90
2024/04/22 02:23:47;;;;;;;4.97;2.35;;;;;;;5.76;55.34;102772.50;5324073;26;95811;-89
2024/04/22 02:26:13;;;;;;;5.03;2.70;;;;;;;5.72;55.36;102762.72;5298356;26;98187;-89
2024/04/22 02:28:38;;;;;;;5.15;2.30;;;;;;;5.72;55.34;102758.47;5299181;26;94862;-89
2024/04/22 02:31:04;;;;;;;4.80;2.45;;;;;;;5.71;55.25;102756.66;5289913;26;94882;-89
2024/04/22 02:33:30;;;;;;;6.15;3.17;;;;;;;5.72;55.52;102757.53;5305033;26;98194;-90
2024/04/22 02:35:55;;;;;;;5.03;2.75;;;;;;;5.71;55.28;102760.94;5303800;26;95654;-89
2024/04/22 02:38:21;;;;;;;5.20;3.47;;;;;;;5.68;55.50;102756.47;5269485;26;94925;-90
2024/04/22 02:40:47;;;;;;;4.97;2.50;;;;;;;5.68;55.36;102758.16;5269763;26;94876;-89
2024/04/22 02:43:12;;;;;;;5.97;3.60;;;;;;;5.68;55.74;102763.34;5304821;26;94884;-89
2024/04/22 02:45:38;;;;;;;4.85;2.28;;;;;;;5.69;55.57;102759.97;5277719;26;98060;-89
2024/04/22 02:48:04;;;;;;;5.65;2.60;;;;;;;5.69;55.75;102759.97;5277682;26;94805;-88
2024/04/22 02:50:30;;;;;;;4.72;2.67;;;;;;;5.72;55.38;102762.72;5288898;26;94930;-89
2024/04/22 02:52:55;;;;;;;4.95;3.17;;;;;;;5.73;55.66;102769.72;5311244;26;95568;-89
2024/04/22 02:55:23;;;;;;;5.20;2.35;;;;;;;5.72;55.74;102758.47;5311214;26;97817;-89
2024/04/22 02:57:48;;;;;;;6.07;3.78;;;;;;;5.75;55.74;102762.94;5310764;26;95545;-89
2024/04/22 03:00:14;;;;;;;5.25;2.67;;;;;;;5.75;55.76;102760.34;5299877;26;95111;-89
2024/04/22 03:02:39;;;;;;;8.55;2.80;;;;;;;5.75;55.82;102762.03;5298770;26;95461;-89
2024/04/22 03:05:05;;;;;;;5.75;2.72;;;;;;;5.77;55.49;102758.72;5295823;26;98366;-90
2024/04/22 03:07:30;;;;;;;6.72;2.65;;;;;;;5.79;55.85;102770.06;5294221;26;94929;-89
2024/04/22 03:09:56;;;;;;;5.70;3.08;;;;;;;5.79;55.67;102764.91;5266273;26;95143;-89
2024/04/22 03:12:21;;;;;;;5.00;2.85;;;;;;;5.79;55.73;102764.91;5299318;26;95862;-90
2024/04/22 03:14:47;;;;;;;5.65;3.40;;;;;;;5.80;55.90;102760.63;5269082;26;97244;-90
2024/04/22 03:17:12;;;;;;;5.60;2.75;;;;;;;5.81;55.94;102767.59;5269735;26;94852;-89
2024/04/22 03:19:38;;;;;;;6.88;2.50;;;;;;;5.80;55.96;102764.13;5299219;26;94858;-89
2024/04/22 03:22:04;;;;;;;7.78;2.60;;;;;;;5.80;56.07;102755.47;5296208;26;97419;-89
2024/04/22 03:24:29;;;;;;;5.45;3.50;;;;;;;5.82;56.33;102762.50;5289028;26;95771;-89
2024/04/22 03:26:54;;;;;;;5.15;2.53;;;;;;;5.83;55.95;102759.13;5303479;26;94910;-89
2024/04/22 03:29:20;;;;;;;6.15;2.60;;;;;;;5.82;55.99;102759.91;5268849;26;94990;-89
2024/04/22 03:31:45;;;;;;;4.80;2.53;;;;;;;5.85;56.38;102762.72;5267711;26;98441;-90
2024/04/22 03:34:11;;;;;;;7.15;2.70;;;;;;;5.88;56.54;102759.41;5296070;26;97077;-89
2024/04/22 03:36:37;;;;;;;8.35;2.90;;;;;;;5.91;56.56;102752.72;5267120;26;94792;-89
2024/04/22 03:39:02;;;;;;;5.15;2.78;;;;;;;5.98;56.25;102758.34;5280186;26;95020;-89
2024/04/22 03:41:28;;;;;;;4.88;2.50;;;;;;;6.01;56.37;102758.53;5292047;26;98504;-89
2024/04/22 03:43:54;;;;;;;4.32;2.13;;;;;;;6.04;56.47;102748.34;5297723;26;95525;-89
2024/04/22 03:51:48;;;;;;;5.68;3.15;;;;;;;6.14;56.33;102740.34;5300223;26;98191;-89
2024/04/22 03:54:13;;;;;;;5.30;3.28;;;;;;;6.17;56.60;102737.94;5262995;26;98469;-89
2024/04/22 03:56:39;;;;;;;5.28;2.80;;;;;;;6.20;56.56;102729.44;5313884;26;95016;-90
2024/04/22 03:59:04;;;;;;;5.43;2.25;;;;;;;6.23;56.56;102735.69;5311205;26;94968;-89
2024/04/22 04:01:30;;;;;;;5.60;2.92;;;;;;;6.24;56.28;102727.13;5321791;26;98208;-90
2024/04/22 04:03:59;;;;;;;8.30;2.35;;;;;;;6.26;56.20;102720.34;5297181;26;97479;-89
2024/04/22 04:06:27;;;;;;;6.45;2.38;;;;;;;6.29;56.40;102712.75;5295440;26;94980;-89
2024/04/22 04:08:52;;;;;;;5.15;2.17;;;;;;;6.29;56.18;102711.84;5271093;26;94980;-89
2024/04/22 04:11:23;;;;;;;5.18;1.70;;;;;;;6.31;56.26;102717.13;5313873;26;95840;-89
2024/04/22 04:13:48;;;;;;;4.82;2.50;;;;;;;6.32;56.38;102724.13;5298083;26;97396;-89
2024/04/22 04:16:14;;;;;;;4.32;2.20;;;;;;;6.32;56.42;102719.81;5266976;26;94820;-89
2024/04/22 04:18:40;;;;;;;4.03;1.92;;;;;;;6.33;56.35;102713.84;5308753;26;94951;-89
2024/04/22 04:21:06;;;;;;;4.63;1.80;;;;;;;6.34;56.16;102720.78;5287422;26;96779;-89
2024/04/22 04:23:32;;;;;;;4.20;1.77;;;;;;;6.31;56.14;102710.28;5312463;26;98167;-90
2024/04/22 04:25:58;;;;;;;6.20;1.75;;;;;;;6.32;56.32;102718.94;5299505;26;95704;-89
2024/04/22 04:28:24;;;;;;;4.93;1.75;;;;;;;6.32;56.21;102722.41;5290288;26;94776;-89
2024/04/22 04:30:54;;;;;;;6.38;1.60;;;;;;;6.32;56.13;102722.41;5304108;26;98092;-89
2024/04/22 04:33:19;;;;;;;4.70;2.00;;;;;;;6.33;56.39;102719.03;5309661;26;97676;-89
2024/04/22 04:35:45;;;;;;;4.80;2.67;;;;;;;6.34;56.47;102717.31;5298592;26;94806;-89
2024/04/22 04:38:10;;;;;;;4.68;2.05;;;;;;;6.34;56.69;102722.50;5322887;26;95013;-89
2024/04/22 04:40:36;;;;;;;5.78;2.17;;;;;;;6.36;56.53;102715.72;5323316;26;98222;-89
2024/04/22 04:43:01;;;;;;;5.25;2.13;;;;;;;6.37;56.69;102713.22;5303967;26;98659;-89
2024/04/22 04:45:26;;;;;;;8.50;2.17;;;;;;;6.40;56.43;102715.09;5322560;26;94894;-89
2024/04/22 04:47:58;;;;;;;5.43;1.95;;;;;;;6.40;56.36;102718.59;5323213;26;95053;-89
2024/04/22 04:50:24;;;;;;;5.82;1.85;;;;;;;6.40;56.76;102715.09;5321653;26;95726;-89
2024/04/22 04:52:49;;;;;;;4.47;2.05;;;;;;;6.42;56.91;102719.56;5323724;26;95869;-90
2024/04/22 04:55:15;;;;;;;5.22;2.10;;;;;;;6.44;57.11;102717.97;5322716;26;94810;-89
2024/04/22 04:57:40;;;;;;;7.47;1.92;;;;;;;6.49;56.92;102715.66;5333217;26;95157;-89
2024/04/22 05:00:07;;;;;;;4.32;2.30;;;;;;;6.52;56.88;102720.09;5322341;26;97248;-89
2024/04/22 05:02:35;;;;;;;5.28;2.78;;;;;;;6.53;56.94;102719.31;5302062;26;98355;-90
2024/04/22 05:05:00;;;;;;;4.75;1.90;;;;;;;6.54;57.02;102723.69;5310501;26;94853;-90
2024/04/22 05:07:26;;;;;;;4.43;2.92;;;;;;;6.58;56.93;102721.38;5309135;26;95008;-89
2024/04/22 05:09:54;;;;;;;4.35;1.60;;;;;;;6.62;56.80;102725.94;5288474;26;95691;-89
2024/04/22 05:12:20;;;;;;;4.78;1.95;;;;;;;6.67;56.83;102728.81;5312474;26;98351;-89
2024/04/22 05:14:48;;;;;;;4.40;2.03;;;;;;;6.71;57.05;102727.28;5301143;26;94929;-89
2024/04/22 05:17:16;;;;;;;6.78;2.17;;;;;;;6.76;57.11;102731.94;5319282;26;95004;-90
2024/04/22 05:19:44;;;;;;;5.40;1.98;;;;;;;6.82;56.99;102731.38;5301281;26;95797;-89
2024/04/22 05:22:12;;;;;;;4.25;1.90;;;;;;;6.86;57.22;102725.56;5327057;26;97826;-90
2024/04/22 05:24:38;;;;;;;6.90;2.47;;;;;;;6.89;57.25;102722.28;5327112;26;94766;-89
2024/04/22 05:27:04;;;;;;;4.25;2.00;;;;;;;6.96;57.35;102727.00;5327033;26;94872;-90
2024/04/22 05:29:31;;;;;;;5.63;2.42;;;;;;;6.98;57.11;102726.25;5323045;26;95507;-89
2024/04/22 05:31:57;;;;;;;4.93;2.05;;;;;;;7.01;57.20;102712.59;5327307;26;98534;-89
2024/04/22 05:37:07;;;;;;;5.25;1.92;;;;;;;7.07;56.99;102723.31;5304742;26;95014;-89
2024/04/22 05:39:35;;;;;;;4.90;1.88;;;;;;;7.10;57.23;102720.00;5321920;26;98611;-91
2024/04/22 05:42:15;;;;;;;4.78;2.00;;;;;;;7.14;56.97;102714.19;5303886;26;98214;-89
2024/04/22 05:44:45;;;;;;;6.03;1.90;;;;;;;7.20;57.29;102718.03;5281740;26;94887;-87
2024/04/22 05:47:11;;;;;;;5.15;2.08;;;;;;;7.23;57.11;102710.38;5328433;26;94905;-87
2024/04/22 05:49:42;;;;;;;7.05;2.95;;;;;;;7.31;57.38;102707.31;5329509;26;98497;-88
2024/04/22 05:52:10;;;;;;;5.65;2.22;;;;;;;7.41;57.21;102709.63;5323530;26;98357;-89
2024/04/22 05:54:36;;;;;;;4.82;2.15;;;;;;;7.49;57.71;102703.16;5328678;26;94824;-92
2024/04/22 05:57:02;;;;;;;6.25;2.58;;;;;;;7.59;57.45;102709.75;5296677;26;95004;-89
2024/04/22 05:59:28;;;;;;;6.60;3.25;;;;;;;7.68;57.88;102714.53;5278929;26;99124;-92
2024/04/22 06:01:53;;;;;;;5.43;2.15;;;;;;;7.74;57.97;102710.59;5318597;26;97700;-89
2024/04/22 06:04:19;;;;;;;7.63;2.72;;;;;;;7.84;58.03;102709.38;5278093;26;94779;-89
2024/04/22 06:06:48;;;;;;;6.00;3.13;;;;;;;7.97;58.03;102713.53;5314216;26;94901;-89
2024/04/22 06:09:22;;;;;;;4.88;2.17;;;;;;;8.09;58.01;102708.06;5327075;26;97267;-88
2024/04/22 06:11:52;;;;;;;10.75;3.60;;;;;;;8.22;57.90;102699.19;5316332;26;97706;-89
2024/04/22 06:14:18;;;;;;;6.63;2.90;;;;;;;8.34;57.83;102708.56;5304812;26;94889;-89
2024/04/22 06:16:49;;;;;;;5.85;2.35;;;;;;;8.44;57.71;102701.25;5318582;26;94989;-89
2024/04/22 06:19:17;;;;;;;5.75;2.42;;;;;;;8.52;57.85;102695.63;5319780;26;97781;-89
2024/04/22 06:21:43;;;;;;;4.50;2.17;;;;;;;8.62;57.61;102691.75;5314076;26;97925;-90
2024/04/22 06:24:10;;;;;;;6.43;3.58;;;;;;;8.71;57.66;102692.22;5280116;26;94805;-90
2024/04/22 06:26:45;;;;;;;6.78;2.50;;;;;;;8.80;57.44;102696.09;5319411;26;94973;-90
2024/04/22 06:29:18;;;;;;;6.10;2.42;;;;;;;8.87;57.81;102690.38;5314903;26;98438;-89
2024/04/22 06:31:44;;;;;;;5.97;2.90;;;;;;;8.97;57.72;102690.03;5325051;26;96705;-90
2024/04/22 06:34:43;;;;;;;6.10;3.55;;;;;;;9.08;57.83;102686.22;5321571;26;94843;-89
2024/04/22 06:37:13;;;;;;;6.38;2.80;;;;;;;9.21;57.92;102692.03;5293458;26;95011;-90
2024/04/22 06:39:39;;;;;;;6.07;2.10;;;;;;;9.31;57.92;102689.91;5299259;26;96303;-90
2024/04/22 06:42:08;;;;;;;7.75;2.20;;;;;;;9.44;57.97;102682.69;5329706;26;97706;-90
2024/04/22 06:44:42;;;;;;;5.60;2.20;;;;;;;9.55;58.17;102689.28;5300303;26;95007;-90
2024/04/22 06:47:18;;;;;;;8.07;3.17;;;;;;;9.71;58.13;102688.25;5319528;26;116267;-90
2024/04/22 06:49:47;;;;;;;7.15;2.08;;;;;;;9.84;57.92;102684.50;5320748;26;97682;-90
2024/04/22 06:52:19;;;;;;;4.63;2.05;;;;;;;9.96;57.88;102679.84;5299801;26;97101;-90
2024/04/22 06:54:48;;;;;;;5.35;2.63;;;;;;;10.08;57.98;102682.09;5322262;26;94851;-90
2024/04/22 06:57:21;;;;;;;7.10;2.17;;;;;;;10.17;57.57;102677.28;5324547;26;94894;-90
2024/04/22 06:59:50;;;;;;;4.45;2.22;;;;;;;10.31;57.42;102682.22;5280119;26;97638;-89
2024/04/22 07:02:55;;;;;;;7.47;2.08;;;;;;;10.42;57.31;102670.56;5291506;26;97653;-90
2024/04/22 07:05:41;;;;;;;8.88;3.10;;;;;;;10.59;57.78;102673.88;5258580;26;95686;-88
2024/04/22 07:08:09;;;;;;;8.07;2.15;;;;;;;10.74;57.52;102677.13;5211600;26;95063;-88
2024/04/22 07:10:37;;;;;;;6.00;2.15;;;;;;;10.90;57.24;102675.13;5237561;26;98231;-87
2024/04/22 07:13:03;;;;;;;6.63;2.42;;;;;;;11.05;56.99;102670.50;5226772;26;99442;-88
2024/04/22 07:15:29;;;;;;;9.52;3.20;;;;;;;11.21;57.52;102666.78;5207759;26;95034;-88
2024/04/22 07:17:56;;;;;;;7.32;2.00;;;;;;;11.42;56.87;102666.72;5264758;26;94954;-87
2024/04/22 07:20:24;;;;;;;10.68;2.22;;;;;;;11.60;57.01;102669.16;5271541;26;97977;-87
2024/04/22 07:22:50;;;;;;;5.80;2.10;;;;;;;11.77;57.01;102667.19;5240611;26;98508;-87
2024/04/22 07:25:17;;;;;;;10.23;2.35;;;;;;;11.93;56.22;102666.03;5214399;26;94910;-87
2024/04/22 07:27:46;;;;;;;5.13;2.13;;;;;;;12.06;56.14;102667.38;5238301;26;94972;-88
2024/04/22 07:30:16;;;;;;;8.68;2.05;;;;;;;12.19;55.96;102664.34;5237201;26;98177;-87
2024/04/22 07:32:43;;;;;;;7.43;2.50;;;;;;;12.33;56.09;102659.59;5236859;26;97912;-88
2024/04/22 07:35:10;;;;;;;9.13;1.88;;;;;;;12.44;55.17;102655.63;5237452;26;95019;-91
2024/04/22 07:37:43;;;;;;;13.60;2.38;;;;;;;12.53;54.83;102652.41;5361576;26;94858;-89
2024/04/22 07:40:24;;;;;;;9.02;2.15;;;;;;;12.64;55.23;102656.28;5331126;26;98780;-90
2024/04/22 07:42:50;;;;;;;10.68;2.63;;;;;;;12.79;55.37;102647.16;5291341;26;97283;-90
2024/04/22 07:45:17;;;;;;;6.00;2.25;;;;;;;12.93;54.70;102643.25;5283785;26;94878;-91
2024/04/22 07:47:43;;;;;;;9.55;2.92;;;;;;;13.07;54.52;102644.56;5324575;26;94808;-88
2024/04/22 07:50:12;;;;;;;10.98;2.58;;;;;;;13.21;54.00;102644.06;5314682;26;98182;-88
2024/04/22 07:52:39;;;;;;;7.95;2.60;;;;;;;13.28;53.82;102646.03;5296843;26;97932;-86
2024/04/22 07:55:12;;;;;;;9.57;2.72;;;;;;;13.35;53.56;102644.53;5314748;26;94961;-88
2024/04/22 07:57:46;;;;;;;9.20;2.50;;;;;;;13.44;53.28;102637.84;5294644;26;94934;-88
2024/04/22 08:00:12;;;;;;;11.27;2.17;;;;;;;13.56;53.82;102641.66;5312553;26;99298;-87
2024/04/22 08:02:39;;;;;;;7.43;2.58;;;;;;;13.67;53.50;102643.75;5285689;26;98178;-86
2024/04/22 08:05:08;;;;;;;9.90;2.40;;;;;;;13.79;52.64;102643.19;5314235;26;94964;-88
2024/04/22 08:07:34;;;;;;;11.75;2.15;;;;;;;13.88;52.18;102643.44;5293707;26;95032;-87
2024/04/22 08:10:01;;;;;;;7.43;1.95;;;;;;;13.97;52.37;102644.56;5317991;26;98213;-87
2024/04/22 08:12:27;;;;;;;9.35;2.28;;;;;;;14.06;52.52;102637.84;5311364;26;99238;-87
2024/04/22 08:14:55;;;;;;;7.30;2.40;;;;;;;14.17;52.33;102651.25;5299385;26;95008;-86
2024/04/22 08:17:21;;;;;;;10.15;2.75;;;;;;;14.28;52.20;102643.66;5278113;26;94964;-86
2024/04/22 08:19:49;;;;;;;8.23;2.00;;;;;;;14.35;51.98;102642.03;5307634;26;98449;-89
2024/04/22 08:22:18;;;;;;;8.70;2.55;;;;;;;14.44;52.32;102645.81;5286191;26;97665;-86
2024/04/22 08:24:44;;;;;;;7.15;2.55;;;;;;;14.55;51.76;102632.06;5311782;26;94934;-86
2024/04/22 08:27:13;;;;;;;10.48;2.95;;;;;;;14.68;52.02;102634.16;5305004;26;94995;-86
2024/04/22 08:29:51;;;;;;;12.13;2.38;;;;;;;14.82;51.63;102635.38;5307511;26;95656;-87
2024/04/22 08:32:17;;;;;;;5.43;2.13;;;;;;;15.02;51.59;102630.56;5295181;26;95548;-87
2024/04/22 08:34:48;;;;;;;7.10;1.70;;;;;;;15.18;51.37;102629.19;5313605;26;94973;-91
2024/04/22 08:37:17;;;;;;;6.10;1.95;;;;;;;15.37;51.01;102629.59;5303860;26;94915;-87
2024/04/22 08:39:43;;;;;;;6.78;1.70;;;;;;;15.53;50.78;102636.94;5271547;26;98798;-88
2024/04/22 08:42:13;;;;;;;6.95;2.30;;;;;;;15.65;49.12;102627.50;5320436;26;95826;-88
2024/04/22 08:44:39;;;;;;;6.00;2.65;;;;;;;15.64;48.48;102631.91;5314584;26;94902;-89
2024/04/22 08:47:07;;;;;;;;;;;;;;;15.59;49.81;102636.19;5310719;26;94847;-87
2024/04/22 08:49:34;;;;;;;6.40;2.33;;;;;;;15.61;48.90;102629.19;5297413;26;98441;-88
2024/04/22 08:52:02;;;;;;;3.88;1.60;;;;;;;15.54;47.89;102629.94;5292788;26;98327;-91
2024/04/22 08:54:35;;;;;;;7.35;1.58;;;;;;;15.45;48.15;102625.38;5324567;26;94777;-89
2024/04/22 08:57:05;;;;;;;;;;;;;;;15.37;49.06;102622.59;5277538;26;95056;-89
2024/04/22 08:59:31;;;;;;;7.25;1.52;;;;;;;15.32;47.20;102621.59;5334225;26;98525;-88
2024/04/22 09:02:10;;;;;;;5.32;2.10;;;;;;;15.15;47.09;102616.00;5321357;26;99322;-89
2024/04/22 09:04:51;;;;;;;5.32;1.55;;;;;;;15.04;47.16;102618.38;5320076;26;117612;-88
2024/04/22 09:07:33;;;;;;;4.78;1.50;;;;;;;14.92;46.63;102606.69;5312115;26;94831;-89
2024/04/22 09:10:06;;;;;;;6.35;2.17;;;;;;;14.81;46.13;102601.19;5278376;26;98831;-89
2024/04/22 09:13:04;;;;;;;7.32;1.85;;;;;;;14.60;45.61;102605.09;5283543;26;98816;-89
2024/04/22 09:15:37;;;;;;;6.75;1.70;;;;;;;14.41;45.18;102602.84;5325117;26;94950;-88
2024/04/22 09:18:13;;;;;;;6.05;1.30;;;;;;;14.20;45.37;102608.44;5324546;26;94855;-88
2024/04/22 09:20:42;;;;;;;3.60;1.27;;;;;;;14.06;45.47;102601.09;5286438;26;97857;-89
2024/04/22 09:23:31;;;;;;;9.75;2.00;;;;;;;13.93;46.08;102609.47;5290091;26;97167;-89
2024/04/22 09:26:25;;;;;;;8.25;2.00;;;;;;;13.84;47.08;102610.13;5311175;26;95038;-89
2024/04/22 09:29:28;;;;;;;7.72;2.10;;;;;;;13.65;47.07;102627.09;5305035;26;94911;-90
2024/04/22 09:32:39;;;;;;;5.07;2.38;;;;;;;13.38;46.75;102628.91;5304565;26;98602;-91
2024/04/22 09:35:37;;;;;;;;;;;;;;;;;;;;;
2024/04/22 09:42:46;;;;;;;4.25;2.20;;;;;;;12.15;48.26;102626.72;5209286;27;95175;-91
2024/04/22 09:46:40;;;;;;;;;;;;;;;;;;;;;
2024/04/22 09:50:39;;;;;;;;;;;;;;;;;;;;;
2024/04/22 09:53:57;;;;;;;8.93;2.22;;;;;;;11.68;51.02;102604.09;4976891;28;95017;-91
2024/04/22 09:56:39;;;;;;;6.90;2.50;;;;;;;11.77;51.35;102615.78;4948657;28;95223;-91
2024/04/22 09:59:13;;;;;;;4.68;2.28;;;;;;;11.83;51.74;102609.88;4963307;28;96732;-90
2024/04/22 10:01:42;;;;;;;5.50;2.40;;;;;;;11.90;51.85;102609.28;4990604;28;97792;-91
2024/04/22 10:04:46;;;;;;;7.10;2.58;;;;;;;11.90;51.84;102606.66;4951589;28;94708;-96
2024/04/22 10:18:12;;;;;;;5.93;2.33;;;;;;;12.27;53.54;102596.59;5427105;26;94928;-89
2024/04/22 10:20:44;;;;;;;8.68;2.67;;;;;;;12.57;54.20;102599.34;5425865;25;95096;-85
2024/04/22 10:23:12;;;;;;;7.45;3.15;;;;;;;12.92;53.26;102591.69;5428356;26;98884;-91
2024/04/22 10:25:37;;;;;;;5.15;2.85;;;;;;;13.17;52.59;102595.94;5384061;26;98672;-91
2024/04/22 10:28:03;;;;;;;6.97;2.47;;;;;;;13.29;50.87;102592.78;5370512;26;94706;-90
2024/04/22 10:30:36;;;;;;;6.32;2.20;;;;;;;13.31;51.08;102605.16;5394675;26;94915;-91
2024/04/22 10:33:05;;;;;;;5.88;2.72;;;;;;;13.43;51.41;102599.34;5402502;26;98325;-90
2024/04/22 10:35:32;;;;;;;6.68;2.13;;;;;;;13.65;51.42;102586.84;5398998;26;98079;-91
2024/04/22 10:37:58;;;;;;;6.85;2.47;;;;;;;13.89;51.96;102586.66;5400322;26;94707;-91
2024/04/22 10:40:24;;;;;;;7.40;2.80;;;;;;;14.21;51.63;102573.47;5399255;26;94925;-91
2024/04/22 10:42:50;;;;;;;6.15;2.28;;;;;;;14.46;51.18;102578.47;5400015;26;98046;-91
2024/04/22 10:45:16;;;;;;;4.90;1.83;;;;;;;14.62;49.83;102573.63;5399065;26;98659;-90
2024/04/22 10:47:42;;;;;;;5.50;2.17;;;;;;;14.69;49.67;102565.03;5430998;26;94770;-91
2024/04/22 10:50:15;;;;;;;4.95;2.40;;;;;;;14.69;49.33;102561.50;5431826;26;95149;-91
2024/04/22 10:52:41;;;;;;;7.13;2.75;;;;;;;14.64;48.27;102569.28;5429761;26;98228;-91
2024/04/22 10:55:07;;;;;;;5.95;2.42;;;;;;;14.55;47.29;102569.94;5431478;26;95566;-92
2024/04/22 10:57:34;;;;;;;5.95;2.35;;;;;;;14.42;46.99;102563.50;5400712;26;94693;-91
2024/04/22 11:00:01;;;;;;;8.30;3.08;;;;;;;14.33;46.40;102565.00;5401119;26;94952;-93
2024/04/22 11:02:27;;;;;;;4.32;2.33;;;;;;;14.21;46.13;102561.22;5400637;26;97311;-92
2024/04/22 11:04:53;;;;;;;4.85;2.70;;;;;;;14.12;46.13;102563.63;5429873;25;97383;-90
2024/04/22 11:07:22;;;;;;;6.22;3.20;;;;;;;14.02;46.29;102574.72;5392729;26;94749;-90
2024/04/22 11:09:48;;;;;;;6.55;2.63;;;;;;;13.95;45.76;102575.41;5413101;26;94892;-91
2024/04/22 11:12:14;;;;;;;5.70;3.20;;;;;;;13.84;45.12;102568.16;5429534;26;98028;-91
2024/04/22 11:14:41;;;;;;;5.68;3.30;;;;;;;13.74;45.27;102570.47;5428370;26;95784;-89
2024/04/22 11:17:09;;;;;;;3.72;2.20;;;;;;;13.63;45.47;102583.31;5432827;26;94709;-89
2024/04/22 11:19:34;;;;;;;5.30;2.53;;;;;;;13.52;45.31;102575.13;5401794;26;94842;-92
2024/04/22 11:22:01;;;;;;;5.03;2.95;;;;;;;13.47;45.93;102572.38;5401022;26;98453;-89
2024/04/22 11:24:26;;;;;;;4.20;2.30;;;;;;;13.48;45.61;102576.78;5435435;25;95568;-89
2024/04/22 11:26:52;;;;;;;6.95;3.65;;;;;;;13.60;45.94;102563.16;5442338;25;94770;-89
2024/04/22 11:29:18;;;;;;;7.13;3.35;;;;;;;13.84;46.05;102559.41;5387911;26;95081;-88
2024/04/22 11:31:46;;;;;;;6.50;2.55;;;;;;;14.01;45.52;102558.09;5376455;25;98443;-87
2024/04/22 11:34:12;;;;;;;5.82;2.75;;;;;;;14.13;45.04;102552.28;5407276;25;95591;-90
2024/04/22 11:36:37;;;;;;;5.78;2.55;;;;;;;14.18;44.14;102548.03;5399250;25;95511;-87
2024/04/22 11:39:13;;;;;;;5.32;3.10;;;;;;;14.15;43.85;102540.06;5371441;26;95055;-88
2024/04/22 11:41:38;;;;;;;4.70;3.08;;;;;;;14.20;43.84;102541.06;5385837;25;95960;-87
2024/04/22 11:44:04;;;;;;;5.90;3.13;;;;;;;14.20;42.83;102540.19;5387571;25;98456;-85
2024/04/22 11:46:30;;;;;;;4.45;2.08;;;;;;;14.30;42.62;102536.06;5360689;25;94919;-87
2024/04/22 11:48:55;;;;;;;6.60;2.95;;;;;;;14.40;42.41;102538.97;5396399;25;95112;-86
2024/04/22 11:51:20;;;;;;;4.03;2.63;;;;;;;14.62;41.95;102529.84;5380460;26;99596;-88
2024/04/22 11:53:46;;;;;;;6.50;2.95;;;;;;;14.83;42.00;102532.09;5392593;25;100002;-87
2024/04/22 11:56:11;;;;;;;7.10;3.20;;;;;;;14.98;41.98;102535.91;5398581;26;94873;-85
2024/04/22 11:58:37;;;;;;;6.03;2.70;;;;;;;14.99;40.43;102540.28;5359642;26;94977;-85
2024/04/22 12:01:03;;;;;;;4.60;2.33;;;;;;;14.89;40.32;102541.84;5384368;25;97410;-85
2024/04/22 12:03:28;;;;;;;4.68;3.10;;;;;;;14.76;40.28;102540.69;5357073;26;98868;-85
2024/04/22 12:05:53;;;;;;;5.55;2.58;;;;;;;14.62;39.82;102550.00;5387405;25;94854;-85
2024/04/22 12:08:19;;;;;;;7.25;2.55;;;;;;;14.45;40.23;102541.66;5404194;25;94962;-84